Main page
METAR-TAF:

Airports :

Current weather observation

The report was made 24 minutes ago, at 05:00 UTC
Wind 12 kt from the North/Northwest
Temperature 35°C
Humidity 44%
Pressure 1006 hPa
Visibility 10 km or more
no clouds below 1500 m and no cumulonimbus

METAR: OTBD 250500Z 34012KT CAVOK 35/21 Q1006 NOSIG

Time: 05:24 (05:24 UTC)

Forecast

The report was made 6 hours and 24 minutes ago, at 23:00 UTC
Forecast valid from 25 at 00 UTC to 26 at 06 UTC
Wind 10 kt from the Northwest
Visibility 10 km or more
no clouds below 1500 m and no cumulonimbus
Becoming
from 25 at 07 UTC to 25 at 09 UTC
Wind 15 kt from the North with gusts up to 25 kt
Visibility: 9000 m
Probability 30% :
Temporary
from 25 at 07 UTC to 25 at 16 UTC
Visibility: 4000 m
Blowing dust
Becoming
from 25 at 17 UTC to 25 at 19 UTC
Wind 8 kt from the Northwest

TAF: OTBD 242300Z 2500/2606 32010KT CAVOK BECMG 2507/2509 01015G25KT 9000 NSC PROB30 TEMPO 2507/2516 4000 BLDU BECMG 2517/2519 31008KT

METAR-TAF

Weather observations and forecasts of more than 4000 airports (METAR and TAF reports).

The available stations are represented by yellow and red dots on the map.

Hover mouse over dot to see the name of the station.

Then click to see weather observations and forecasts.

To change the map : click on the green buttons with a black cross to zoom in, on the green button with a dash to zoom out, or on the green arrows for adjacent maps.


METAR-TAF: